createdAt,value
2024-02-29T00:03:46.260Z,5.70
2024-02-29T00:06:18.261Z,5.70
2024-02-29T00:08:50.647Z,5.70
2024-02-29T00:11:22.723Z,5.70
2024-02-29T00:13:55.146Z,5.70
2024-02-29T00:16:27.120Z,5.70
2024-02-29T00:18:59.492Z,5.60
2024-02-29T00:21:31.699Z,5.60
2024-02-29T00:24:04.129Z,5.50
2024-02-29T00:26:36.096Z,5.50
2024-02-29T00:29:09.414Z,5.40
2024-02-29T00:31:45.479Z,5.40
2024-02-29T00:34:18.026Z,5.40
2024-02-29T00:36:50.061Z,5.40
2024-02-29T00:39:22.637Z,5.30
2024-02-29T00:41:54.601Z,5.40
2024-02-29T00:44:27.059Z,5.50
2024-02-29T00:47:00.020Z,5.50
2024-02-29T00:49:33.249Z,5.50
2024-02-29T00:52:05.385Z,5.40
2024-02-29T00:54:37.875Z,5.40
2024-02-29T00:57:09.873Z,5.40
2024-02-29T01:02:14.765Z,5.40
2024-02-29T01:04:47.333Z,5.40
2024-02-29T01:07:21.150Z,5.40
2024-02-29T01:14:59.606Z,5.50
2024-02-29T01:17:31.599Z,5.50
2024-02-29T01:20:06.656Z,5.40
2024-02-29T01:22:39.009Z,5.40
2024-02-29T01:25:13.057Z,5.40
2024-02-29T01:27:45.124Z,5.30
2024-02-29T01:30:17.812Z,5.30
2024-02-29T01:32:49.828Z,5.20
2024-02-29T01:35:22.308Z,5.30
2024-02-29T01:37:54.292Z,5.30
2024-02-29T01:40:26.748Z,5.30
2024-02-29T01:42:58.869Z,5.30
2024-02-29T01:45:31.321Z,5.30
2024-02-29T01:48:04.084Z,5.30
2024-02-29T01:50:37.508Z,5.30
2024-02-29T01:53:09.570Z,5.20
2024-02-29T01:55:41.924Z,5.10
2024-02-29T01:58:14.472Z,5.10
2024-02-29T02:00:47.027Z,5.10
2024-02-29T02:03:20.160Z,5.10
2024-02-29T02:05:52.534Z,5.10
2024-02-29T02:08:27.938Z,5.10
2024-02-29T02:11:01.211Z,5.00
2024-02-29T02:13:33.300Z,4.90
2024-02-29T02:16:06.640Z,4.70
2024-02-29T02:18:39.089Z,4.60
2024-02-29T02:21:11.517Z,4.70
2024-02-29T02:26:16.370Z,4.70
2024-02-29T02:28:48.353Z,4.70
2024-02-29T02:31:20.752Z,4.80
2024-02-29T02:33:52.720Z,4.80
2024-02-29T02:36:25.846Z,4.90
2024-02-29T02:38:57.800Z,4.90
2024-02-29T02:44:02.582Z,4.90
2024-02-29T02:46:34.927Z,4.80
2024-02-29T02:49:07.532Z,4.80
2024-02-29T02:56:45.137Z,4.60
2024-02-29T02:59:18.590Z,4.50
2024-02-29T03:01:51.019Z,4.50
2024-02-29T03:04:22.958Z,4.50
2024-02-29T03:06:55.371Z,4.40
2024-02-29T03:09:27.413Z,4.40
2024-02-29T03:11:59.752Z,4.40
2024-02-29T03:14:31.732Z,4.40
2024-02-29T03:17:04.937Z,4.50
2024-02-29T03:19:37.063Z,4.50
2024-02-29T03:22:09.737Z,4.50
2024-02-29T03:24:44.383Z,4.40
2024-02-29T03:29:49.289Z,4.40
2024-02-29T03:32:21.828Z,4.40
2024-02-29T03:34:53.800Z,4.40
2024-02-29T03:37:26.333Z,4.30
2024-02-29T03:39:58.311Z,4.40
2024-02-29T03:42:31.270Z,4.40
2024-02-29T03:45:03.858Z,4.50
2024-02-29T03:47:37.602Z,4.60
2024-02-29T03:50:13.273Z,4.50
2024-02-29T03:52:45.491Z,4.50
2024-02-29T03:55:17.625Z,4.60
2024-02-29T03:57:50.189Z,4.70
2024-02-29T04:00:22.308Z,4.70
2024-02-29T04:02:54.769Z,4.80
2024-02-29T04:05:27.165Z,4.80
2024-02-29T04:08:05.230Z,4.80
2024-02-29T04:10:37.398Z,4.80
2024-02-29T04:13:10.009Z,4.80
2024-02-29T04:15:42.380Z,4.70
2024-02-29T04:18:14.887Z,4.80
2024-02-29T04:20:47.007Z,4.70
2024-02-29T04:23:19.473Z,4.80
2024-02-29T04:25:51.420Z,4.80
2024-02-29T04:28:23.934Z,4.90
2024-02-29T04:30:55.991Z,4.90
2024-02-29T04:33:28.466Z,4.90
2024-02-29T04:36:00.881Z,6.30
2024-02-29T04:38:33.399Z,5.40
2024-02-29T04:41:05.410Z,5.30
2024-02-29T04:43:38.684Z,5.30
2024-02-29T04:46:10.746Z,5.10
2024-02-29T04:48:43.298Z,5.00
2024-02-29T04:51:15.228Z,5.00
2024-02-29T04:56:20.823Z,5.00
2024-02-29T04:58:53.287Z,5.00
2024-02-29T05:01:25.285Z,5.00
2024-02-29T05:03:57.854Z,5.00
2024-02-29T05:06:30.298Z,5.00
2024-02-29T05:09:02.789Z,5.00
2024-02-29T05:11:37.282Z,5.10
2024-02-29T05:16:43.265Z,5.10
2024-02-29T05:19:16.142Z,5.20
2024-02-29T05:21:48.490Z,5.10
2024-02-29T05:26:53.356Z,5.10
2024-02-29T05:29:25.946Z,5.10
2024-02-29T05:31:58.708Z,5.10
2024-02-29T05:34:31.359Z,5.00
2024-02-29T05:37:03.473Z,5.00
2024-02-29T05:39:36.472Z,5.10
2024-02-29T05:42:08.530Z,5.10
2024-02-29T05:44:41.100Z,5.10
2024-02-29T05:47:13.424Z,5.10
2024-02-29T05:49:46.246Z,5.10
2024-02-29T05:52:20.869Z,5.10
2024-02-29T05:54:53.458Z,5.10
2024-02-29T05:57:31.670Z,4.90
2024-02-29T06:00:07.464Z,5.00
2024-02-29T06:05:21.344Z,4.90
2024-02-29T06:07:53.409Z,5.00
2024-02-29T06:10:25.694Z,5.00
2024-02-29T06:12:58.164Z,5.00
2024-02-29T06:15:30.623Z,5.00
2024-02-29T06:18:02.871Z,5.00
2024-02-29T06:20:35.437Z,5.00
2024-02-29T06:23:07.517Z,5.00
2024-02-29T06:25:40.098Z,5.00
2024-02-29T06:28:12.137Z,5.10
2024-02-29T06:33:17.201Z,5.10
2024-02-29T06:35:51.014Z,5.10
2024-02-29T06:40:56.276Z,5.20
2024-02-29T06:43:30.654Z,5.30
2024-02-29T06:46:06.924Z,5.30
2024-02-29T06:48:40.248Z,5.30
2024-02-29T06:51:12.829Z,5.30
2024-02-29T06:53:44.809Z,5.40
2024-02-29T06:56:17.543Z,5.40
2024-02-29T07:01:24.395Z,5.50
2024-02-29T07:06:30.240Z,5.60
2024-02-29T07:09:02.516Z,5.70
2024-02-29T07:11:35.157Z,5.80
2024-02-29T07:14:07.397Z,5.80
2024-02-29T07:16:40.036Z,5.90
2024-02-29T07:19:12.175Z,6.00
2024-02-29T07:21:45.112Z,6.00
2024-02-29T07:24:17.123Z,6.10
2024-02-29T07:26:56.111Z,6.20
2024-02-29T07:32:01.026Z,6.40
2024-02-29T07:34:35.269Z,6.50
2024-02-29T07:37:08.003Z,6.70
2024-02-29T07:39:40.015Z,6.90
2024-02-29T07:42:12.533Z,7.00
2024-02-29T07:44:44.543Z,7.00
2024-02-29T07:47:17.145Z,7.10
2024-02-29T07:49:49.164Z,7.00
2024-02-29T07:59:59.879Z,7.10
2024-02-29T08:10:17.025Z,7.20
2024-02-29T08:12:49.819Z,7.00
2024-02-29T08:15:21.990Z,7.00
2024-02-29T08:17:54.616Z,7.00
2024-02-29T08:20:27.148Z,7.30
2024-02-29T08:22:59.672Z,7.50
2024-02-29T08:25:31.944Z,7.40
2024-02-29T08:33:12.092Z,7.40
2024-02-29T08:35:44.139Z,7.60
2024-02-29T08:38:17.771Z,7.70
2024-02-29T08:40:50.353Z,7.70
2024-02-29T08:43:23.103Z,7.70
2024-02-29T08:45:55.123Z,7.70
2024-02-29T08:51:00.475Z,7.90
2024-02-29T08:56:05.997Z,8.10
2024-02-29T09:01:11.221Z,8.10
2024-02-29T09:03:44.596Z,8.20
2024-02-29T09:06:17.566Z,8.30
2024-02-29T09:08:50.124Z,8.30
2024-02-29T09:16:30.860Z,8.50
2024-02-29T09:19:06.134Z,8.40
2024-02-29T09:21:38.260Z,8.40
2024-02-29T09:24:16.053Z,8.50
2024-02-29T09:26:48.546Z,8.60
2024-02-29T09:29:22.888Z,8.60
2024-02-29T09:31:56.212Z,8.70
2024-02-29T09:39:35.681Z,9.00
2024-02-29T09:42:13.931Z,9.20
2024-02-29T09:44:48.569Z,9.40
2024-02-29T09:47:22.103Z,9.30
2024-02-29T09:52:39.659Z,9.40
2024-02-29T09:55:15.401Z,9.10
2024-02-29T09:57:47.692Z,9.10
2024-02-29T10:00:21.911Z,9.10
2024-02-29T10:02:56.057Z,9.20
2024-02-29T10:05:28.773Z,9.30
2024-02-29T10:08:03.294Z,9.90
2024-02-29T10:13:10.766Z,9.80
2024-02-29T10:18:17.826Z,9.90
2024-02-29T10:20:50.526Z,9.80
2024-02-29T10:23:22.681Z,10.00
2024-02-29T10:25:55.334Z,10.40
2024-02-29T10:28:28.754Z,10.30
2024-02-29T10:31:02.642Z,10.20
2024-02-29T10:33:39.905Z,10.20
2024-02-29T10:36:13.041Z,10.20
2024-02-29T10:38:45.172Z,10.40
2024-02-29T10:41:19.734Z,11.00
2024-02-29T10:43:52.762Z,11.50
2024-02-29T10:46:26.264Z,12.60
2024-02-29T10:49:08.284Z,11.70
2024-02-29T10:51:50.036Z,11.70
2024-02-29T10:54:33.843Z,11.30
2024-02-29T10:57:16.727Z,11.30
2024-02-29T10:59:55.237Z,11.80
2024-02-29T11:02:30.534Z,12.20
2024-02-29T11:05:04.407Z,12.10
2024-02-29T11:10:10.574Z,11.80
2024-02-29T11:12:45.807Z,11.70
2024-02-29T11:15:27.065Z,12.20
2024-02-29T11:18:00.785Z,12.20
2024-02-29T11:31:48.046Z,13.00
2024-02-29T11:34:30.036Z,14.00
2024-02-29T11:37:07.265Z,14.30
2024-02-29T11:39:40.197Z,14.80
2024-02-29T11:42:15.412Z,15.20
2024-02-29T11:45:35.642Z,14.60
2024-02-29T11:48:34.290Z,14.40
2024-02-29T11:51:08.941Z,15.00
2024-02-29T11:53:41.797Z,13.60
2024-02-29T12:01:25.020Z,12.30
2024-02-29T12:07:45.694Z,12.60
2024-02-29T12:10:15.335Z,12.10
2024-02-29T12:15:21.410Z,12.70
2024-02-29T12:17:54.033Z,12.90
2024-02-29T12:20:26.901Z,13.00
2024-02-29T12:23:00.213Z,13.20
2024-02-29T12:25:32.554Z,13.40
2024-02-29T12:28:09.129Z,13.10
2024-02-29T12:30:50.031Z,13.20
2024-02-29T12:33:27.311Z,13.40
2024-02-29T12:38:36.274Z,13.40
2024-02-29T12:41:08.702Z,13.60
2024-02-29T12:43:50.386Z,13.70
2024-02-29T12:51:37.823Z,13.30
2024-02-29T12:56:47.763Z,13.40
2024-02-29T13:02:01.644Z,13.50
2024-02-29T13:15:11.604Z,13.50
2024-02-29T13:32:00.560Z,13.70
2024-02-29T13:34:34.517Z,13.50
2024-02-29T13:37:09.456Z,13.50
2024-02-29T13:39:47.842Z,13.40
2024-02-29T13:42:33.542Z,15.40
2024-02-29T13:45:16.255Z,13.40
2024-02-29T13:47:59.426Z,13.70
2024-02-29T13:53:24.557Z,13.00
2024-02-29T13:55:59.740Z,13.20
2024-02-29T13:58:35.219Z,13.40
2024-02-29T14:01:15.115Z,16.10
2024-02-29T14:19:39.133Z,13.60
2024-02-29T14:24:59.965Z,13.10
2024-02-29T14:30:11.416Z,13.20
2024-02-29T14:32:46.864Z,13.20
2024-02-29T14:35:19.955Z,13.30
2024-02-29T14:38:07.440Z,13.30
2024-02-29T14:41:36.617Z,13.10
2024-02-29T14:44:09.248Z,13.20
2024-02-29T14:49:52.124Z,12.90
2024-02-29T14:59:47.068Z,12.90
2024-02-29T15:03:25.947Z,13.00
2024-02-29T15:09:06.825Z,13.10
2024-02-29T15:11:46.693Z,14.00
2024-02-29T15:20:07.460Z,13.00
2024-02-29T15:22:41.626Z,12.80
2024-02-29T15:27:55.152Z,12.80
2024-02-29T15:43:21.677Z,12.70
2024-02-29T15:45:54.723Z,12.60
2024-02-29T15:51:01.046Z,12.70
2024-02-29T15:53:33.309Z,12.80
2024-02-29T15:56:07.449Z,12.70
2024-02-29T15:58:39.656Z,12.70
2024-02-29T16:01:12.454Z,12.80
2024-02-29T16:03:44.707Z,12.70
2024-02-29T16:06:20.912Z,12.70
2024-02-29T16:09:04.124Z,12.70
2024-02-29T16:11:36.933Z,12.70
2024-02-29T16:19:30.692Z,12.60
2024-02-29T16:22:03.705Z,12.50
2024-02-29T16:32:50.660Z,12.40
2024-02-29T16:43:15.970Z,12.00
2024-02-29T16:45:49.785Z,11.90
2024-02-29T16:53:30.234Z,11.80
2024-02-29T16:56:03.046Z,11.80
2024-02-29T17:01:24.394Z,11.70
2024-02-29T17:04:01.618Z,11.60
2024-02-29T17:14:23.436Z,11.50
2024-02-29T17:16:55.791Z,11.40
2024-02-29T17:22:02.293Z,11.30
2024-02-29T17:24:39.050Z,12.60
2024-02-29T17:27:11.272Z,11.20
2024-02-29T17:32:22.103Z,11.10
2024-02-29T17:45:11.083Z,10.50
2024-02-29T17:50:21.000Z,10.30
2024-02-29T17:52:56.595Z,10.10
2024-02-29T17:55:30.097Z,10.00
2024-02-29T18:03:20.028Z,9.90
2024-02-29T18:11:27.031Z,9.50
2024-02-29T18:16:34.709Z,9.30
2024-02-29T18:21:46.539Z,9.20
2024-02-29T18:24:19.363Z,9.10
2024-02-29T18:26:51.558Z,9.10
2024-02-29T18:29:26.518Z,9.10
2024-02-29T18:34:31.182Z,9.00
2024-02-29T18:42:10.390Z,8.80
2024-02-29T18:44:43.132Z,8.90
2024-02-29T18:49:53.094Z,8.80
2024-02-29T18:52:33.482Z,8.70
2024-02-29T19:00:16.586Z,8.60
2024-02-29T19:05:22.057Z,8.60
2024-02-29T19:10:27.165Z,8.50
2024-02-29T19:12:59.212Z,8.40
2024-02-29T19:18:04.656Z,8.50
2024-02-29T19:20:37.199Z,8.40
2024-02-29T19:23:10.692Z,8.30
2024-02-29T19:26:04.249Z,8.10
2024-02-29T19:31:15.683Z,8.70
2024-02-29T19:36:22.314Z,8.10
2024-02-29T19:38:57.736Z,7.80
2024-02-29T19:44:02.816Z,7.70
2024-02-29T19:49:14.724Z,7.80
2024-02-29T19:54:20.031Z,7.90
2024-02-29T19:59:24.514Z,7.80
2024-02-29T20:07:03.174Z,7.60
2024-02-29T20:09:35.648Z,7.40
2024-02-29T20:19:48.359Z,7.30
2024-02-29T20:22:21.099Z,7.20
2024-02-29T20:27:27.433Z,7.30
2024-02-29T20:29:59.481Z,7.30
2024-02-29T20:37:37.516Z,7.20
2024-02-29T20:40:10.310Z,7.20
2024-02-29T20:42:43.088Z,7.20
2024-02-29T20:50:23.498Z,7.20
2024-02-29T20:55:35.931Z,7.20
2024-02-29T21:05:49.520Z,7.00
2024-02-29T21:08:22.190Z,7.00
2024-02-29T21:10:54.254Z,7.00
2024-02-29T21:21:06.942Z,6.80
2024-02-29T21:23:40.102Z,6.70
2024-02-29T21:26:12.114Z,6.70
2024-02-29T21:31:20.134Z,6.60
2024-02-29T21:39:03.354Z,6.60
2024-02-29T21:41:36.766Z,6.60
2024-02-29T21:44:10.997Z,6.60
2024-02-29T21:49:17.849Z,6.80
2024-02-29T21:51:50.078Z,6.80
2024-02-29T21:54:25.764Z,6.80
2024-02-29T21:56:58.223Z,6.70
2024-02-29T22:02:03.545Z,6.70
2024-02-29T22:07:08.629Z,6.60
2024-02-29T22:09:41.138Z,6.60
2024-02-29T22:12:13.175Z,6.60
2024-02-29T22:14:45.652Z,6.60
2024-02-29T22:17:17.606Z,6.60
2024-02-29T22:19:50.316Z,6.60
2024-02-29T22:30:01.204Z,6.50
2024-02-29T22:32:33.848Z,6.50
2024-02-29T22:37:41.322Z,6.50
2024-02-29T22:40:14.547Z,6.70
2024-02-29T22:42:46.727Z,6.70
2024-02-29T22:47:51.779Z,6.80
2024-02-29T22:50:24.419Z,6.70
2024-02-29T22:52:56.387Z,6.80
2024-02-29T22:55:29.201Z,6.80
2024-02-29T22:58:01.552Z,6.80
2024-02-29T23:08:13.180Z,7.00
2024-02-29T23:10:45.684Z,6.90
2024-02-29T23:13:17.856Z,6.90
2024-02-29T23:15:51.006Z,6.90
2024-02-29T23:18:23.048Z,6.80
2024-02-29T23:23:29.842Z,6.90
2024-02-29T23:26:02.629Z,7.00
2024-02-29T23:28:34.697Z,7.10
2024-02-29T23:31:07.484Z,7.00
2024-02-29T23:33:39.606Z,6.90
2024-02-29T23:36:12.094Z,6.80
2024-02-29T23:38:44.026Z,6.70
2024-02-29T23:41:16.508Z,6.70
2024-02-29T23:43:48.528Z,6.50
2024-02-29T23:46:21.068Z,6.50
2024-02-29T23:48:53.094Z,6.50
2024-02-29T23:51:25.645Z,6.50
2024-02-29T23:53:57.600Z,6.70
2024-02-29T23:56:30.070Z,6.70
2024-02-29T23:59:02.069Z,6.90
